Time;durP1;ratioP1;P1;durP2;ratioP2;P2;SDS_P1;SDS_P2;PMS_P1;PMS_P2;Temp;Humidity;BMP_temperature;BMP_pressure;BME280_temperature;BME280_humidity;BME280_pressure;Samples;Min_cycle;Max_cycle;Signal;HPM_P1;HPM_P2
2024/01/20 00:01:31;;;;;;;2.50;1.45;;;;;;;;;;5022991;28;20037;-80
2024/01/20 00:03:56;;;;;;;4.57;1.77;;;;;;;;;;5022458;28;20045;-80
2024/01/20 00:06:22;;;;;;;2.88;1.50;;;;;;;;;;5009637;28;20499;-79
2024/01/20 00:08:47;;;;;;;3.42;1.77;;;;;;;;;;5023540;28;20510;-81
2024/01/20 00:11:13;;;;;;;3.80;1.65;;;;;;;;;;5023424;28;20037;-80
2024/01/20 00:13:39;;;;;;;3.33;1.63;;;;;;;;;;5023508;28;20127;-80
2024/01/20 00:16:05;;;;;;;4.43;1.70;;;;;;;;;;5020932;28;20125;-82
2024/01/20 00:18:30;;;;;;;3.22;1.70;;;;;;;;;;5024031;28;20034;-80
2024/01/20 00:20:56;;;;;;;2.85;1.70;;;;;;;;;;5019898;28;20080;-80
2024/01/20 00:23:22;;;;;;;3.00;1.80;;;;;;;;;;5019906;28;20037;-81
2024/01/20 00:25:48;;;;;;;4.35;2.05;;;;;;;;;;5027457;28;20228;-82
2024/01/20 00:28:14;;;;;;;3.25;1.60;;;;;;;;;;5023309;28;21367;-81
2024/01/20 00:30:39;;;;;;;4.45;1.90;;;;;;;;;;5003275;28;20034;-80
2024/01/20 00:33:08;;;;;;;4.10;1.90;;;;;;;;;;5021236;28;20028;-81
2024/01/20 00:35:34;;;;;;;4.95;2.00;;;;;;;;;;5026251;28;20038;-81
2024/01/20 00:37:59;;;;;;;4.97;2.05;;;;;;;;;;5004163;28;20030;-81
2024/01/20 00:40:25;;;;;;;3.05;1.90;;;;;;;;;;5017745;28;20029;-81
2024/01/20 00:42:50;;;;;;;4.97;1.80;;;;;;;;;;5002452;28;20034;-80
2024/01/20 00:45:16;;;;;;;3.97;1.85;;;;;;;;;;5002454;28;20038;-81
2024/01/20 00:47:44;;;;;;;5.07;1.98;;;;;;;;;;5006216;28;20026;-80
2024/01/20 00:50:10;;;;;;;4.55;2.13;;;;;;;;;;4986405;28;20025;-80
2024/01/20 00:52:35;;;;;;;3.28;1.77;;;;;;;;;;5022336;28;20048;-79
2024/01/20 00:55:01;;;;;;;3.92;2.17;;;;;;;;;;5011522;28;20034;-81
2024/01/20 00:57:26;;;;;;;4.15;1.92;;;;;;;;;;5023161;28;20191;-82
2024/01/20 00:59:52;;;;;;;3.97;2.10;;;;;;;;;;5005510;28;20112;-82
2024/01/20 01:02:18;;;;;;;5.30;2.53;;;;;;;;;;4999085;28;20040;-81
2024/01/20 01:04:44;;;;;;;3.90;1.88;;;;;;;;;;5015285;28;20113;-80
2024/01/20 01:07:10;;;;;;;4.90;2.33;;;;;;;;;;5004971;28;20030;-81
2024/01/20 01:09:36;;;;;;;4.28;2.00;;;;;;;;;;5005254;28;20423;-81
2024/01/20 01:12:02;;;;;;;4.38;1.90;;;;;;;;;;5001221;28;20098;-81
2024/01/20 01:14:27;;;;;;;4.07;2.10;;;;;;;;;;5001507;28;20087;-82
2024/01/20 01:16:53;;;;;;;3.90;2.22;;;;;;;;;;5026900;28;20026;-81
2024/01/20 01:19:19;;;;;;;4.68;1.80;;;;;;;;;;5002895;28;20411;-81
2024/01/20 01:21:45;;;;;;;5.07;2.15;;;;;;;;;;5022049;28;20033;-82
2024/01/20 01:24:10;;;;;;;3.63;2.13;;;;;;;;;;5017684;28;20029;-82
2024/01/20 01:26:36;;;;;;;4.10;2.00;;;;;;;;;;5001825;28;20084;-80
2024/01/20 01:29:01;;;;;;;4.13;2.30;;;;;;;;;;5016865;28;20061;-80
2024/01/20 01:31:27;;;;;;;5.07;2.30;;;;;;;;;;5019893;28;20112;-81
2024/01/20 01:33:52;;;;;;;4.95;2.20;;;;;;;;;;5007348;28;20052;-81
2024/01/20 01:36:18;;;;;;;4.75;2.00;;;;;;;;;;5025068;28;20063;-82
2024/01/20 01:38:43;;;;;;;4.90;2.35;;;;;;;;;;5009133;28;20030;-82
2024/01/20 01:41:09;;;;;;;3.95;2.05;;;;;;;;;;5002015;28;20034;-82
2024/01/20 01:43:34;;;;;;;6.05;2.10;;;;;;;;;;5017251;28;20040;-81
2024/01/20 01:45:59;;;;;;;4.63;2.45;;;;;;;;;;5017182;28;20404;-81
2024/01/20 01:48:26;;;;;;;4.32;2.20;;;;;;;;;;5009011;28;20032;-82
2024/01/20 01:50:53;;;;;;;3.55;2.05;;;;;;;;;;5023609;28;20151;-82
2024/01/20 01:53:19;;;;;;;5.63;2.10;;;;;;;;;;5019734;28;20101;-80
2024/01/20 01:55:46;;;;;;;4.30;2.20;;;;;;;;;;5023510;28;20057;-81
2024/01/20 01:58:12;;;;;;;3.25;2.20;;;;;;;;;;5020175;28;20037;-80
2024/01/20 02:00:38;;;;;;;3.80;2.20;;;;;;;;;;5020342;28;20218;-80
2024/01/20 02:03:04;;;;;;;3.72;2.03;;;;;;;;;;5019172;28;20038;-81
2024/01/20 02:05:30;;;;;;;3.65;1.67;;;;;;;;;;5003394;28;20029;-79
2024/01/20 02:07:57;;;;;;;2.92;1.77;;;;;;;;;;5017998;28;20034;-82
2024/01/20 02:10:23;;;;;;;2.67;1.77;;;;;;;;;;5020162;28;20545;-79
2024/01/20 02:12:49;;;;;;;3.65;2.00;;;;;;;;;;4993535;28;20551;-81
2024/01/20 02:15:15;;;;;;;4.28;1.85;;;;;;;;;;5016264;28;20042;-80
2024/01/20 02:17:54;;;;;;;2.88;1.60;;;;;;;;;;4984674;28;20021;-81
2024/01/20 02:20:20;;;;;;;2.83;1.70;;;;;;;;;;5034851;28;20046;-81
2024/01/20 02:22:46;;;;;;;4.30;1.90;;;;;;;;;;5016289;28;20116;-80
2024/01/20 02:25:11;;;;;;;4.30;1.77;;;;;;;;;;5012817;28;20562;-80
2024/01/20 02:27:37;;;;;;;3.85;1.60;;;;;;;;;;4997408;28;20033;-81
2024/01/20 02:30:03;;;;;;;3.25;1.80;;;;;;;;;;5003866;28;20029;-80
2024/01/20 02:32:28;;;;;;;3.63;1.55;;;;;;;;;;5022182;28;20033;-80
2024/01/20 02:34:54;;;;;;;3.28;1.52;;;;;;;;;;5021945;28;20097;-80
2024/01/20 02:37:19;;;;;;;2.10;1.40;;;;;;;;;;5018229;28;20084;-80
2024/01/20 02:39:45;;;;;;;4.40;1.77;;;;;;;;;;5024586;28;20121;-80
2024/01/20 02:42:10;;;;;;;3.08;1.85;;;;;;;;;;5020020;28;20073;-80
2024/01/20 02:44:37;;;;;;;2.97;1.70;;;;;;;;;;5020258;28;20061;-80
2024/01/20 02:47:03;;;;;;;3.38;1.90;;;;;;;;;;5019657;28;20041;-80
2024/01/20 02:49:28;;;;;;;4.55;1.92;;;;;;;;;;5019113;28;20049;-81
2024/01/20 02:51:54;;;;;;;3.20;1.90;;;;;;;;;;5019846;28;20128;-82
2024/01/20 02:54:19;;;;;;;2.92;1.70;;;;;;;;;;5023311;28;20026;-82
2024/01/20 02:56:45;;;;;;;2.70;1.63;;;;;;;;;;5002107;28;20033;-82
2024/01/20 02:59:10;;;;;;;2.97;1.60;;;;;;;;;;5003822;28;20034;-82
2024/01/20 03:01:36;;;;;;;5.15;2.00;;;;;;;;;;5007516;28;20076;-81
2024/01/20 03:04:01;;;;;;;4.13;1.38;;;;;;;;;;5008060;28;20026;-81
2024/01/20 03:06:27;;;;;;;3.63;1.80;;;;;;;;;;5010349;28;20074;-80
2024/01/20 03:08:52;;;;;;;3.42;1.80;;;;;;;;;;5017708;28;20438;-80
2024/01/20 03:11:18;;;;;;;3.55;1.50;;;;;;;;;;5004966;28;20120;-80
2024/01/20 03:13:43;;;;;;;2.95;1.45;;;;;;;;;;5021735;28;20034;-80
2024/01/20 03:16:09;;;;;;;3.05;1.70;;;;;;;;;;5021765;28;20057;-80
2024/01/20 03:18:37;;;;;;;3.03;1.73;;;;;;;;;;5002019;28;20041;-81
2024/01/20 03:21:04;;;;;;;2.65;1.67;;;;;;;;;;5021702;28;20411;-82
2024/01/20 03:23:29;;;;;;;3.55;1.60;;;;;;;;;;5024466;28;20112;-79
2024/01/20 03:25:55;;;;;;;2.90;1.60;;;;;;;;;;4997062;28;20065;-82
2024/01/20 03:28:21;;;;;;;3.13;1.35;;;;;;;;;;5008395;28;20499;-81
2024/01/20 03:30:47;;;;;;;2.78;1.60;;;;;;;;;;5022364;28;20048;-81
2024/01/20 03:33:12;;;;;;;4.03;1.60;;;;;;;;;;5005370;28;20033;-81
2024/01/20 03:35:38;;;;;;;2.65;1.50;;;;;;;;;;5002695;28;20044;-81
2024/01/20 03:38:04;;;;;;;4.28;1.92;;;;;;;;;;5001680;28;20091;-81
2024/01/20 03:40:29;;;;;;;2.45;1.63;;;;;;;;;;5005133;28;20037;-82
2024/01/20 03:42:55;;;;;;;3.47;1.85;;;;;;;;;;5019906;28;20029;-79
2024/01/20 03:45:20;;;;;;;2.80;1.67;;;;;;;;;;5016745;28;20045;-81
2024/01/20 03:47:46;;;;;;;3.20;1.70;;;;;;;;;;5026107;28;20104;-80
2024/01/20 03:50:11;;;;;;;4.88;1.90;;;;;;;;;;5011072;28;20022;-80
2024/01/20 03:52:37;;;;;;;6.53;1.90;;;;;;;;;;5004831;28;20056;-80
2024/01/20 03:55:02;;;;;;;4.55;2.17;;;;;;;;;;5003383;28;20034;-81
2024/01/20 03:57:28;;;;;;;3.58;1.80;;;;;;;;;;5021565;28;20296;-82
2024/01/20 03:59:53;;;;;;;3.58;1.80;;;;;;;;;;5020382;28;20384;-80
2024/01/20 04:02:19;;;;;;;4.30;1.70;;;;;;;;;;5002949;28;20070;-81
2024/01/20 04:04:44;;;;;;;2.47;1.67;;;;;;;;;;5022099;28;20034;-80
2024/01/20 04:07:10;;;;;;;3.60;1.70;;;;;;;;;;5014297;28;20088;-81
2024/01/20 04:09:35;;;;;;;3.00;1.60;;;;;;;;;;5021675;28;20029;-81
2024/01/20 04:12:01;;;;;;;2.92;1.40;;;;;;;;;;5019050;28;20048;-79
2024/01/20 04:14:27;;;;;;;2.72;1.35;;;;;;;;;;5001005;28;20041;-81
2024/01/20 04:16:52;;;;;;;3.65;1.70;;;;;;;;;;5023423;28;20045;-81
2024/01/20 04:19:18;;;;;;;2.22;1.40;;;;;;;;;;5008370;28;20026;-83
2024/01/20 04:21:43;;;;;;;4.22;1.50;;;;;;;;;;4993568;28;20035;-80
2024/01/20 04:24:09;;;;;;;3.13;1.85;;;;;;;;;;5024184;28;20092;-81
2024/01/20 04:26:35;;;;;;;3.25;1.77;;;;;;;;;;5011132;28;20037;-82
2024/01/20 04:29:00;;;;;;;3.42;1.60;;;;;;;;;;5016649;28;20040;-80
2024/01/20 04:31:26;;;;;;;4.28;1.55;;;;;;;;;;5004799;28;20037;-80
2024/01/20 04:33:53;;;;;;;2.85;1.58;;;;;;;;;;5003663;28;20053;-80
2024/01/20 04:36:19;;;;;;;3.55;1.88;;;;;;;;;;5003598;28;20032;-81
2024/01/20 04:38:45;;;;;;;2.90;1.55;;;;;;;;;;5010254;28;20049;-80
2024/01/20 04:41:10;;;;;;;3.78;1.58;;;;;;;;;;5023592;28;20037;-81
2024/01/20 04:43:36;;;;;;;7.10;2.60;;;;;;;;;;5026052;28;20399;-82
2024/01/20 04:46:01;;;;;;;16.73;4.82;;;;;;;;;;5010180;28;20480;-81
2024/01/20 04:48:27;;;;;;;15.60;5.47;;;;;;;;;;5001726;28;20026;-81
2024/01/20 04:50:52;;;;;;;5.53;2.30;;;;;;;;;;5023536;28;20028;-81
2024/01/20 04:53:18;;;;;;;4.78;2.10;;;;;;;;;;5015884;28;20031;-81
2024/01/20 04:55:43;;;;;;;4.10;2.20;;;;;;;;;;5003175;28;20452;-81
2024/01/20 04:58:09;;;;;;;3.22;1.80;;;;;;;;;;5021989;28;20125;-81
2024/01/20 05:00:35;;;;;;;4.35;1.75;;;;;;;;;;5021487;28;20108;-80
2024/01/20 05:03:01;;;;;;;4.80;1.92;;;;;;;;;;5024076;28;20430;-80
2024/01/20 05:05:26;;;;;;;3.88;1.90;;;;;;;;;;5027042;28;20104;-80
2024/01/20 05:07:52;;;;;;;2.45;1.52;;;;;;;;;;5006914;28;20033;-80
2024/01/20 05:10:19;;;;;;;3.90;1.70;;;;;;;;;;5022026;28;20025;-80
2024/01/20 05:12:44;;;;;;;2.70;1.63;;;;;;;;;;5031102;28;20033;-81
2024/01/20 05:15:11;;;;;;;2.97;1.58;;;;;;;;;;5025950;28;20442;-80
2024/01/20 05:17:37;;;;;;;3.97;1.60;;;;;;;;;;5018852;28;20108;-80
2024/01/20 05:20:04;;;;;;;5.35;1.60;;;;;;;;;;5012848;28;20037;-81
2024/01/20 05:22:31;;;;;;;2.78;1.70;;;;;;;;;;5023480;28;20033;-80
2024/01/20 05:24:56;;;;;;;3.55;1.50;;;;;;;;;;5008383;28;20026;-80
2024/01/20 05:27:22;;;;;;;3.05;1.70;;;;;;;;;;5009779;28;20037;-80
2024/01/20 05:29:47;;;;;;;2.35;1.52;;;;;;;;;;5018722;28;20033;-81
2024/01/20 05:32:15;;;;;;;3.85;1.83;;;;;;;;;;4999860;28;20033;-81
2024/01/20 05:34:40;;;;;;;5.03;1.98;;;;;;;;;;5021316;28;20037;-81
2024/01/20 05:37:06;;;;;;;3.97;1.90;;;;;;;;;;5019569;28;20048;-82
2024/01/20 05:39:31;;;;;;;3.70;1.67;;;;;;;;;;5022868;28;20036;-82
2024/01/20 05:41:57;;;;;;;3.25;1.52;;;;;;;;;;5015270;28;20061;-83
2024/01/20 05:44:22;;;;;;;4.43;1.88;;;;;;;;;;5018272;28;20029;-80
2024/01/20 05:46:48;;;;;;;5.05;1.92;;;;;;;;;;5007707;28;20406;-81
2024/01/20 05:49:13;;;;;;;3.65;2.10;;;;;;;;;;5021217;28;20033;-81
2024/01/20 05:51:39;;;;;;;3.70;1.70;;;;;;;;;;5012780;28;20037;-80
2024/01/20 05:54:04;;;;;;;3.20;1.55;;;;;;;;;;5018061;28;20087;-81
2024/01/20 05:56:30;;;;;;;3.55;1.80;;;;;;;;;;5008059;28;20041;-80
2024/01/20 05:58:55;;;;;;;4.43;2.33;;;;;;;;;;5021372;28;20549;-80
2024/01/20 06:01:21;;;;;;;4.55;1.90;;;;;;;;;;5003321;28;20026;-81
2024/01/20 06:03:46;;;;;;;2.72;1.83;;;;;;;;;;5012054;28;20057;-81
2024/01/20 06:06:12;;;;;;;3.30;1.88;;;;;;;;;;4994767;28;20113;-80
2024/01/20 06:08:37;;;;;;;4.30;1.70;;;;;;;;;;5001264;28;20399;-81
2024/01/20 06:11:03;;;;;;;3.08;1.85;;;;;;;;;;5003547;28;20064;-81
2024/01/20 06:13:29;;;;;;;4.05;1.75;;;;;;;;;;5015171;28;20029;-82
2024/01/20 06:15:55;;;;;;;6.32;2.10;;;;;;;;;;5018239;28;20038;-81
2024/01/20 06:18:20;;;;;;;3.55;1.65;;;;;;;;;;5017064;28;20048;-80
2024/01/20 06:20:46;;;;;;;2.63;1.50;;;;;;;;;;5018207;28;20037;-82
2024/01/20 06:23:12;;;;;;;4.32;2.30;;;;;;;;;;5021511;28;20128;-81
2024/01/20 06:25:38;;;;;;;3.03;2.08;;;;;;;;;;5016654;28;20053;-81
2024/01/20 06:28:05;;;;;;;4.32;1.90;;;;;;;;;;5013187;28;20451;-81
2024/01/20 06:30:31;;;;;;;4.47;1.65;;;;;;;;;;5019920;28;20503;-79
2024/01/20 06:32:58;;;;;;;4.43;1.95;;;;;;;;;;4999475;28;20041;-81
2024/01/20 06:35:24;;;;;;;3.17;1.65;;;;;;;;;;5003471;28;20495;-81
2024/01/20 06:37:50;;;;;;;2.90;1.60;;;;;;;;;;5019279;28;20116;-80
2024/01/20 06:40:16;;;;;;;2.25;1.50;;;;;;;;;;5028909;28;20073;-81
2024/01/20 06:42:42;;;;;;;4.07;1.88;;;;;;;;;;5020853;28;20930;-82
2024/01/20 06:45:08;;;;;;;3.88;1.73;;;;;;;;;;5001329;28;20092;-82
2024/01/20 06:47:34;;;;;;;3.72;1.70;;;;;;;;;;4992144;28;20033;-82
2024/01/20 06:50:00;;;;;;;3.50;2.00;;;;;;;;;;5024112;28;20026;-82
2024/01/20 06:52:25;;;;;;;3.03;1.55;;;;;;;;;;4999745;28;20515;-81
2024/01/20 06:54:51;;;;;;;3.50;1.70;;;;;;;;;;5012546;28;20199;-80
2024/01/20 06:57:16;;;;;;;4.50;1.85;;;;;;;;;;5016604;28;20033;-79
2024/01/20 06:59:42;;;;;;;3.13;1.90;;;;;;;;;;5019483;28;20037;-80
2024/01/20 07:02:07;;;;;;;2.85;1.50;;;;;;;;;;5016132;28;20470;-79
2024/01/20 07:04:33;;;;;;;6.22;1.58;;;;;;;;;;5018757;28;20037;-80
2024/01/20 07:06:58;;;;;;;4.30;1.58;;;;;;;;;;4999508;28;20048;-81
2024/01/20 07:09:25;;;;;;;4.25;1.63;;;;;;;;;;5002900;28;20064;-80
2024/01/20 07:11:53;;;;;;;3.25;1.90;;;;;;;;;;5003369;28;20029;-80
2024/01/20 07:14:19;;;;;;;3.40;1.77;;;;;;;;;;4991043;28;20153;-80
2024/01/20 07:16:45;;;;;;;3.75;1.90;;;;;;;;;;5000666;28;20084;-79
2024/01/20 07:19:10;;;;;;;3.65;1.77;;;;;;;;;;4999816;28;20042;-82
2024/01/20 07:21:36;;;;;;;2.45;1.40;;;;;;;;;;5021203;28;20120;-80
2024/01/20 07:24:01;;;;;;;3.17;1.70;;;;;;;;;;5018514;28;20038;-80
2024/01/20 07:26:27;;;;;;;2.85;1.80;;;;;;;;;;5018371;28;20057;-79
2024/01/20 07:28:52;;;;;;;5.18;2.05;;;;;;;;;;5020819;28;20434;-82
2024/01/20 07:31:18;;;;;;;3.78;1.92;;;;;;;;;;5016550;28;20121;-80
2024/01/20 07:33:44;;;;;;;3.30;1.80;;;;;;;;;;4995794;28;20030;-82
2024/01/20 07:36:09;;;;;;;4.15;2.05;;;;;;;;;;4991976;28;20388;-82
2024/01/20 07:38:35;;;;;;;3.95;1.92;;;;;;;;;;5006362;28;20068;-80
2024/01/20 07:41:01;;;;;;;3.45;2.00;;;;;;;;;;5023981;28;20410;-80
2024/01/20 07:43:26;;;;;;;4.13;2.25;;;;;;;;;;5022380;28;20053;-81
2024/01/20 07:45:54;;;;;;;5.10;2.30;;;;;;;;;;5003936;28;20545;-82
2024/01/20 07:48:20;;;;;;;7.63;2.45;;;;;;;;;;5021512;28;20472;-81
2024/01/20 07:50:46;;;;;;;3.65;2.00;;;;;;;;;;5003814;28;20436;-81
2024/01/20 07:53:11;;;;;;;8.23;2.40;;;;;;;;;;5005633;28;20482;-80
2024/01/20 07:55:37;;;;;;;4.80;2.20;;;;;;;;;;4994496;28;20076;-82
2024/01/20 07:58:02;;;;;;;4.60;2.30;;;;;;;;;;5004761;28;20018;-81
2024/01/20 08:00:28;;;;;;;5.15;2.42;;;;;;;;;;5007555;28;20026;-81
2024/01/20 08:02:53;;;;;;;4.68;2.00;;;;;;;;;;5020997;28;20499;-85
2024/01/20 08:05:19;;;;;;;4.05;2.03;;;;;;;;;;5017069;28;20034;-83
2024/01/20 08:07:44;;;;;;;2.55;1.80;;;;;;;;;;5032736;28;20038;-81
2024/01/20 08:10:10;;;;;;;3.15;1.75;;;;;;;;;;5021779;28;20034;-82
2024/01/20 08:12:35;;;;;;;4.65;2.35;;;;;;;;;;5024597;28;20096;-82
2024/01/20 08:15:01;;;;;;;2.80;1.70;;;;;;;;;;5010305;28;20057;-82
2024/01/20 08:17:26;;;;;;;3.55;1.73;;;;;;;;;;5014297;28;20491;-80
2024/01/20 08:19:52;;;;;;;4.68;1.95;;;;;;;;;;5008892;28;20137;-83
2024/01/20 08:22:17;;;;;;;4.43;1.92;;;;;;;;;;5002811;28;20030;-81
2024/01/20 08:24:43;;;;;;;4.50;1.67;;;;;;;;;;5022666;28;20105;-81
2024/01/20 08:27:08;;;;;;;3.85;2.10;;;;;;;;;;5017551;28;20033;-81
2024/01/20 08:29:35;;;;;;;4.03;1.80;;;;;;;;;;5023938;28;20120;-79
2024/01/20 08:32:00;;;;;;;4.05;1.70;;;;;;;;;;5024083;28;20061;-79
2024/01/20 08:34:26;;;;;;;5.10;1.77;;;;;;;;;;5024562;28;20033;-82
2024/01/20 08:36:52;;;;;;;4.90;2.20;;;;;;;;;;5006088;28;20065;-81
2024/01/20 08:39:20;;;;;;;4.55;2.25;;;;;;;;;;5017564;28;20034;-80
2024/01/20 08:41:46;;;;;;;3.97;2.10;;;;;;;;;;5000163;28;20034;-82
2024/01/20 08:44:13;;;;;;;3.13;1.92;;;;;;;;;;5001972;28;20044;-81
2024/01/20 08:46:38;;;;;;;3.85;1.83;;;;;;;;;;5020545;28;20030;-80
2024/01/20 08:49:04;;;;;;;3.75;2.10;;;;;;;;;;5019448;28;20041;-80
2024/01/20 08:51:29;;;;;;;4.50;2.10;;;;;;;;;;5017860;28;20045;-81
2024/01/20 08:53:55;;;;;;;5.63;2.50;;;;;;;;;;5021558;28;20033;-80
2024/01/20 08:56:20;;;;;;;9.68;3.95;;;;;;;;;;5024408;28;20033;-81
2024/01/20 08:58:46;;;;;;;14.00;4.55;;;;;;;;;;5020981;28;20381;-79
2024/01/20 09:01:11;;;;;;;11.18;4.80;;;;;;;;;;5012837;28;20056;-81
2024/01/20 09:03:37;;;;;;;17.38;6.13;;;;;;;;;;5013666;28;20060;-81
2024/01/20 09:06:02;;;;;;;4.97;2.42;;;;;;;;;;5006411;28;20033;-81
2024/01/20 09:08:28;;;;;;;4.60;2.65;;;;;;;;;;5020160;28;20041;-80
2024/01/20 09:10:53;;;;;;;4.45;2.30;;;;;;;;;;5006946;28;20729;-80
2024/01/20 09:13:19;;;;;;;5.60;2.22;;;;;;;;;;5018857;28;20042;-80
2024/01/20 09:15:45;;;;;;;3.92;2.00;;;;;;;;;;5000188;28;20026;-80
2024/01/20 09:18:11;;;;;;;3.40;1.60;;;;;;;;;;4980186;28;20040;-81
2024/01/20 09:20:37;;;;;;;5.38;2.10;;;;;;;;;;5008027;28;20098;-80
2024/01/20 09:23:03;;;;;;;4.25;2.28;;;;;;;;;;5004856;28;20204;-81
2024/01/20 09:25:28;;;;;;;3.53;1.67;;;;;;;;;;5016181;28;20021;-81
2024/01/20 09:27:54;;;;;;;4.88;2.17;;;;;;;;;;5017970;28;20109;-81
2024/01/20 09:30:19;;;;;;;4.28;2.50;;;;;;;;;;5009541;28;20750;-80
2024/01/20 09:32:45;;;;;;;5.65;2.13;;;;;;;;;;5028065;28;20057;-83
2024/01/20 09:35:10;;;;;;;3.72;1.80;;;;;;;;;;5020180;28;20041;-80
2024/01/20 09:37:36;;;;;;;4.72;1.92;;;;;;;;;;5024564;28;20492;-81
2024/01/20 09:40:05;;;;;;;6.97;1.88;;;;;;;;;;5017105;28;20026;-82
2024/01/20 09:42:31;;;;;;;2.20;1.40;;;;;;;;;;5015820;28;20030;-81
2024/01/20 09:44:58;;;;;;;12.77;1.90;;;;;;;;;;5014899;28;20034;-82
2024/01/20 09:47:23;;;;;;;2.97;1.73;;;;;;;;;;5024356;28;20046;-83
2024/01/20 09:49:49;;;;;;;6.03;1.50;;;;;;;;;;4998114;28;20119;-83
2024/01/20 09:52:15;;;;;;;6.78;2.30;;;;;;;;;;5001317;28;20048;-83
2024/01/20 09:54:56;;;;;;;8.77;2.45;;;;;;;;;;5004876;28;20722;-83
2024/01/20 09:57:23;;;;;;;2.80;1.92;;;;;;;;;;5020386;28;20046;-83
2024/01/20 09:59:50;;;;;;;4.30;1.90;;;;;;;;;;4995685;28;20030;-83
2024/01/20 10:02:17;;;;;;;6.05;2.28;;;;;;;;;;4988732;28;20065;-83
2024/01/20 10:04:46;;;;;;;3.67;2.00;;;;;;;;;;5017399;28;20495;-83
2024/01/20 10:07:26;;;;;;;5.32;2.40;;;;;;;;;;5002124;28;20492;-83
2024/01/20 10:09:51;;;;;;;7.32;1.45;;;;;;;;;;4997314;28;20081;-83
2024/01/20 10:12:17;;;;;;;4.32;1.30;;;;;;;;;;5018988;28;20029;-84
2024/01/20 10:14:42;;;;;;;3.40;1.50;;;;;;;;;;5020629;28;20033;-84
2024/01/20 10:17:08;;;;;;;2.20;1.30;;;;;;;;;;5006647;28;20040;-83
2024/01/20 10:19:33;;;;;;;4.32;1.48;;;;;;;;;;5006583;28;20425;-85
2024/01/20 10:21:59;;;;;;;3.10;1.75;;;;;;;;;;4999341;28;20045;-85
2024/01/20 10:24:24;;;;;;;5.28;1.45;;;;;;;;;;5020090;28;20488;-83
2024/01/20 10:26:52;;;;;;;2.45;1.33;;;;;;;;;;5003904;28;20040;-83
2024/01/20 10:29:18;;;;;;;7.80;1.40;;;;;;;;;;5020012;28;20041;-84
2024/01/20 10:31:43;;;;;;;4.78;1.50;;;;;;;;;;5002905;28;20044;-84
2024/01/20 10:34:09;;;;;;;3.85;1.48;;;;;;;;;;5015634;28;20125;-84
2024/01/20 10:36:36;;;;;;;5.57;1.75;;;;;;;;;;5025295;28;20063;-83
2024/01/20 10:39:04;;;;;;;2.03;1.30;;;;;;;;;;5020359;28;20034;-84
2024/01/20 10:41:30;;;;;;;7.10;1.85;;;;;;;;;;5017565;28;20038;-84
2024/01/20 10:44:03;;;;;;;2.75;1.23;;;;;;;;;;5021452;28;20021;-84
2024/01/20 10:46:33;;;;;;;8.68;2.50;;;;;;;;;;5019504;28;20049;-85
2024/01/20 10:49:00;;;;;;;4.68;2.58;;;;;;;;;;5001775;28;20104;-84
2024/01/20 10:51:27;;;;;;;4.22;2.25;;;;;;;;;;5018413;28;20049;-84
2024/01/20 10:53:54;;;;;;;5.00;2.00;;;;;;;;;;4999441;28;20025;-86
2024/01/20 10:56:20;;;;;;;5.35;2.65;;;;;;;;;;5013125;28;20161;-82
2024/01/20 10:58:56;;;;;;;7.93;3.67;;;;;;;;;;5032433;28;20037;-82
2024/01/20 11:01:22;;;;;;;5.05;2.67;;;;;;;;;;5022210;28;20034;-83
2024/01/20 11:03:48;;;;;;;11.57;2.28;;;;;;;;;;5017263;28;20080;-85
2024/01/20 11:06:24;;;;;;;5.72;1.55;;;;;;;;;;5016962;28;20041;-83
2024/01/20 11:08:51;;;;;;;9.70;5.55;;;;;;;;;;4995425;28;20036;-83
2024/01/20 11:11:26;;;;;;;10.40;3.50;;;;;;;;;;4993524;28;20507;-84
2024/01/20 11:13:52;;;;;;;28.67;2.75;;;;;;;;;;5020861;28;20046;-82
2024/01/20 11:16:19;;;;;;;12.88;5.05;;;;;;;;;;5021387;28;20029;-83
2024/01/20 11:18:45;;;;;;;4.57;2.40;;;;;;;;;;5002856;28;20029;-83
2024/01/20 11:21:18;;;;;;;2.72;1.30;;;;;;;;;;5021141;28;20029;-83
2024/01/20 11:24:04;;;;;;;2.50;1.10;;;;;;;;;;5020116;28;20048;-81
2024/01/20 11:26:35;;;;;;;8.48;1.60;;;;;;;;;;5004025;28;20049;-84
2024/01/20 11:29:04;;;;;;;2.55;1.30;;;;;;;;;;5024510;28;20036;-85
2024/01/20 11:31:30;;;;;;;7.35;1.63;;;;;;;;;;5022722;28;20025;-84
2024/01/20 11:34:01;;;;;;;17.35;6.90;;;;;;;;;;5017509;28;20041;-82
2024/01/20 11:36:29;;;;;;;12.77;4.78;;;;;;;;;;5005524;28;20036;-81
2024/01/20 11:38:56;;;;;;;4.80;1.42;;;;;;;;;;5019899;28;20033;-81
2024/01/20 11:41:22;;;;;;;4.82;1.20;;;;;;;;;;5021865;28;20122;-81
2024/01/20 11:43:47;;;;;;;3.47;1.38;;;;;;;;;;5026623;28;20061;-84
2024/01/20 11:46:14;;;;;;;5.00;2.03;;;;;;;;;;5018884;28;20128;-83
2024/01/20 11:48:40;;;;;;;5.45;1.45;;;;;;;;;;5023118;28;20037;-81
2024/01/20 11:51:05;;;;;;;4.38;1.80;;;;;;;;;;5021690;28;20096;-82
2024/01/20 11:53:31;;;;;;;4.30;1.30;;;;;;;;;;5022487;28;20065;-83
2024/01/20 11:56:02;;;;;;;8.65;1.63;;;;;;;;;;5000483;28;20037;-85
2024/01/20 11:58:30;;;;;;;1.98;1.20;;;;;;;;;;5024666;28;20038;-84
2024/01/20 12:00:57;;;;;;;2.67;1.55;;;;;;;;;;4996524;28;20118;-85
2024/01/20 12:03:23;;;;;;;10.35;2.22;;;;;;;;;;5002632;28;20042;-84
2024/01/20 12:05:48;;;;;;;4.82;2.50;;;;;;;;;;5025565;28;20112;-84
2024/01/20 12:08:14;;;;;;;3.72;1.25;;;;;;;;;;5015187;28;20037;-84
2024/01/20 12:10:45;;;;;;;3.65;1.50;;;;;;;;;;5004920;28;20040;-84
2024/01/20 12:13:12;;;;;;;3.20;1.30;;;;;;;;;;5022696;28;20492;-84
2024/01/20 12:15:41;;;;;;;2.00;1.30;;;;;;;;;;5012811;28;20036;-84
2024/01/20 12:18:08;;;;;;;3.45;1.50;;;;;;;;;;5017180;28;20037;-85
2024/01/20 12:20:37;;;;;;;6.70;2.15;;;;;;;;;;5011524;28;20222;-85
2024/01/20 12:23:03;;;;;;;2.05;1.35;;;;;;;;;;4982731;28;20068;-83
2024/01/20 12:25:29;;;;;;;1.95;1.20;;;;;;;;;;5007727;28;20399;-83
2024/01/20 12:27:57;;;;;;;3.95;2.13;;;;;;;;;;5016109;28;20061;-83
2024/01/20 12:30:22;;;;;;;8.52;3.55;;;;;;;;;;4996218;28;20027;-82
2024/01/20 12:32:48;;;;;;;16.70;6.20;;;;;;;;;;5024811;28;20182;-81
2024/01/20 12:35:14;;;;;;;14.38;5.78;;;;;;;;;;5017336;28;20029;-85
2024/01/20 12:37:39;;;;;;;12.25;3.97;;;;;;;;;;5020819;28;20068;-85
2024/01/20 12:40:05;;;;;;;21.52;7.40;;;;;;;;;;5002523;28;20042;-86
2024/01/20 12:42:32;;;;;;;18.35;7.82;;;;;;;;;;5003606;28;20503;-86
2024/01/20 12:44:58;;;;;;;6.45;1.98;;;;;;;;;;5015841;28;20106;-86
2024/01/20 12:47:24;;;;;;;5.97;2.08;;;;;;;;;;5003127;28;20061;-84
2024/01/20 12:49:52;;;;;;;4.28;1.67;;;;;;;;;;4998313;28;20088;-83
2024/01/20 12:52:18;;;;;;;2.90;1.50;;;;;;;;;;5006739;28;20116;-83
2024/01/20 12:54:43;;;;;;;4.82;2.20;;;;;;;;;;5018885;28;20030;-85
2024/01/20 12:57:09;;;;;;;3.20;1.40;;;;;;;;;;4999445;28;20095;-85
2024/01/20 12:59:34;;;;;;;4.88;1.42;;;;;;;;;;5021830;28;20033;-83
2024/01/20 13:02:00;;;;;;;4.40;2.35;;;;;;;;;;5006531;28;20520;-83
2024/01/20 13:04:25;;;;;;;2.80;1.40;;;;;;;;;;5019973;28;20056;-82
2024/01/20 13:06:51;;;;;;;2.63;1.58;;;;;;;;;;5022998;28;20030;-85
2024/01/20 13:09:21;;;;;;;3.13;1.55;;;;;;;;;;5018777;28;20116;-84
2024/01/20 13:11:48;;;;;;;3.42;1.48;;;;;;;;;;5017322;28;20033;-85
2024/01/20 13:14:13;;;;;;;2.67;1.42;;;;;;;;;;5017183;28;20041;-83
2024/01/20 13:16:39;;;;;;;4.57;2.65;;;;;;;;;;4998803;28;20124;-82
2024/01/20 13:19:04;;;;;;;7.22;3.00;;;;;;;;;;5017248;28;20096;-84
2024/01/20 13:21:30;;;;;;;10.10;3.55;;;;;;;;;;5014618;28;20048;-84
2024/01/20 13:23:55;;;;;;;17.85;5.80;;;;;;;;;;5021492;28;20034;-83
2024/01/20 13:26:21;;;;;;;7.07;2.70;;;;;;;;;;5003056;28;20034;-82
2024/01/20 13:28:48;;;;;;;68.00;24.90;;;;;;;;;;5017353;28;20029;-84
2024/01/20 13:31:16;;;;;;;26.10;11.13;;;;;;;;;;5015691;28;20048;-83
2024/01/20 13:33:41;;;;;;;61.70;24.73;;;;;;;;;;4996809;28;20037;-83
2024/01/20 13:36:07;;;;;;;11.90;5.07;;;;;;;;;;5001942;28;20108;-83
2024/01/20 13:38:32;;;;;;;9.65;4.57;;;;;;;;;;5014238;28;20046;-83
2024/01/20 13:40:58;;;;;;;10.88;5.72;;;;;;;;;;5015356;28;20041;-84
2024/01/20 13:43:23;;;;;;;7.70;3.78;;;;;;;;;;5028382;28;20038;-86
2024/01/20 13:45:49;;;;;;;6.22;2.67;;;;;;;;;;5006076;28;20030;-84
2024/01/20 13:48:14;;;;;;;6.78;3.30;;;;;;;;;;5023731;28;20088;-83
2024/01/20 13:50:40;;;;;;;11.00;5.07;;;;;;;;;;5022927;28;20030;-83
2024/01/20 13:53:06;;;;;;;3.88;1.90;;;;;;;;;;5020456;28;20040;-83
2024/01/20 13:55:31;;;;;;;2.45;1.40;;;;;;;;;;5018460;28;20041;-83
2024/01/20 13:57:57;;;;;;;3.75;2.00;;;;;;;;;;5021974;28;20029;-82
2024/01/20 14:00:22;;;;;;;3.40;1.70;;;;;;;;;;5019261;28;20039;-83
2024/01/20 14:02:48;;;;;;;4.65;1.30;;;;;;;;;;5003871;28;20037;-84
2024/01/20 14:05:14;;;;;;;3.00;1.10;;;;;;;;;;4997707;28;20484;-84
2024/01/20 14:07:40;;;;;;;2.45;1.23;;;;;;;;;;5021987;28;20038;-85
2024/01/20 14:10:06;;;;;;;4.10;1.10;;;;;;;;;;4985615;28;20045;-84
2024/01/20 14:12:32;;;;;;;2.83;1.30;;;;;;;;;;5002567;28;20080;-85
2024/01/20 14:14:57;;;;;;;4.32;1.90;;;;;;;;;;4997226;28;20038;-84
2024/01/20 14:17:23;;;;;;;2.85;1.48;;;;;;;;;;5002098;28;20047;-83
2024/01/20 14:19:49;;;;;;;2.33;1.23;;;;;;;;;;5004999;28;20084;-83
2024/01/20 14:22:14;;;;;;;2.72;1.23;;;;;;;;;;4993083;28;20399;-83
2024/01/20 14:24:40;;;;;;;2.00;1.20;;;;;;;;;;5023518;28;20491;-83
2024/01/20 14:27:06;;;;;;;3.63;1.10;;;;;;;;;;5010443;28;20066;-83
2024/01/20 14:29:31;;;;;;;4.47;1.70;;;;;;;;;;5021644;28;20033;-83
2024/01/20 14:31:58;;;;;;;3.92;1.60;;;;;;;;;;5019811;28;20033;-83
2024/01/20 14:34:24;;;;;;;2.10;1.40;;;;;;;;;;5019096;28;20068;-83
2024/01/20 14:36:53;;;;;;;3.05;1.20;;;;;;;;;;5015101;28;20205;-83